Time;durP1;ratioP1;P1;durP2;ratioP2;P2;SDS_P1;SDS_P2;PMS_P1;PMS_P2;Temp;Humidity;BMP_temperature;BMP_pressure;BME280_temperature;BME280_humidity;BME280_pressure;Samples;Min_cycle;Max_cycle;Signal;HPM_P1;HPM_P2
2023/01/30 00:01:32;;;;;;;;;;;;;;;4.30;63.71;100018.78;5092413;28;20012;-41
2023/01/30 00:03:57;;;;;;;;;;;;;;;4.59;63.58;100072.97;5092188;28;19916;-42
2023/01/30 00:06:23;;;;;;;;;;;;;;;4.47;64.20;100067.16;5092370;28;20010;-41
2023/01/30 00:08:48;;;;;;;;;;;;;;;4.59;64.40;100071.19;5082762;28;19977;-42
2023/01/30 00:11:14;;;;;;;;;;;;;;;4.61;63.52;100077.13;5071888;28;20386;-42
2023/01/30 00:13:40;;;;;;;;;;;;;;;4.37;63.39;100061.97;5071949;28;20022;-42
2023/01/30 00:16:08;;;;;;;;;;;;;;;4.14;63.49;100063.50;5072019;28;19920;-41
2023/01/30 00:18:33;;;;;;;;;;;;;;;4.28;63.58;100065.53;5071803;28;19920;-42
2023/01/30 00:20:59;;;;;;;;;;;;;;;4.36;63.05;100070.03;5071808;28;19917;-42
2023/01/30 00:23:25;;;;;;;;;;;;;;;4.60;62.79;100067.53;5072005;28;19916;-42
2023/01/30 00:25:50;;;;;;;;;;;;;;;4.42;62.72;100070.25;5071857;28;19986;-42
2023/01/30 00:28:16;;;;;;;;;;;;;;;4.46;64.49;100066.31;5071618;28;19912;-41
2023/01/30 00:30:41;;;;;;;;;;;;;;;4.26;63.15;100062.25;5071672;28;19912;-42
2023/01/30 00:33:07;;;;;;;;;;;;;;;4.29;64.12;100056.69;5071790;28;20441;-41
2023/01/30 00:35:33;;;;;;;;;;;;;;;4.25;64.87;100057.97;5071857;28;19947;-41
2023/01/30 00:37:59;;;;;;;;;;;;;;;4.43;65.20;100060.53;5071706;28;19978;-42
2023/01/30 00:40:25;;;;;;;;;;;;;;;4.54;64.94;100067.38;5071585;28;19924;-42
2023/01/30 00:48:38;;;;;;;;;;;;;;;4.81;63.93;100066.34;5049479;28;19920;-41
2023/01/30 00:51:03;;;;;;;;;;;;;;;4.68;63.47;100058.84;5062108;28;19912;-41
2023/01/30 00:53:28;;;;;;;;;;;;;;;4.78;63.61;100058.72;5071362;28;19924;-41
2023/01/30 00:55:54;;;;;;;;;;;;;;;4.91;63.38;100067.03;5071064;28;20264;-42
2023/01/30 00:58:21;;;;;;;;;;;;;;;4.89;62.67;100061.94;5071694;28;20030;-42
2023/01/30 01:00:46;;;;;;;;;;;;;;;4.59;63.84;100062.44;5071118;28;19927;-41
2023/01/30 01:03:11;;;;;;;;;;;;;;;4.27;64.39;100063.91;5071494;28;19917;-42
2023/01/30 01:05:37;;;;;;;;;;;;;;;4.72;64.94;100062.00;5071165;28;19966;-41
2023/01/30 01:08:02;;;;;;;;;;;;;;;4.63;64.10;100059.34;5071512;28;19983;-42
2023/01/30 01:10:28;;;;;;;;;;;;;;;3.97;65.34;100059.91;5071254;28;19916;-41
2023/01/30 01:12:53;;;;;;;;;;;;;;;4.38;66.86;100052.25;5071497;28;20025;-41
2023/01/30 01:15:19;;;;;;;;;;;;;;;4.30;65.12;100051.25;5071562;28;19913;-41
2023/01/30 01:17:45;;;;;;;;;;;;;;;4.21;64.48;100038.19;5071324;28;19912;-42
2023/01/30 01:20:11;;;;;;;;;;;;;;;4.96;64.04;100056.03;5070648;28;19970;-41
2023/01/30 01:22:37;;;;;;;;;;;;;;;4.47;63.50;100051.34;5071197;28;19924;-42
2023/01/30 01:25:02;;;;;;;;;;;;;;;4.70;64.13;100041.91;5071173;28;19916;-41
2023/01/30 01:27:28;;;;;;;;;;;;;;;4.72;63.27;100038.28;5071257;28;19919;-42
2023/01/30 01:29:53;;;;;;;;;;;;;;;4.55;63.23;100030.31;5071117;28;19912;-42
2023/01/30 01:32:19;;;;;;;;;;;;;;;4.60;63.37;100033.28;5071078;28;19919;-42
2023/01/30 01:34:44;;;;;;;;;;;;;;;4.46;63.42;100033.88;5071153;28;19999;-42
2023/01/30 01:37:10;;;;;;;;;;;;;;;4.64;63.83;100037.25;5071064;28;20378;-42
2023/01/30 01:42:21;;;;;;;;;;;;;;;4.70;62.67;100031.38;5071096;28;20011;-41
2023/01/30 01:45:05;;;;;;;;;;;;;;;4.49;63.63;100025.66;5071246;28;19969;-42
2023/01/30 01:47:32;;;;;;;;;;;;;;;4.72;63.54;100031.19;5070966;28;19919;-43
2023/01/30 01:49:58;;;;;;;;;;;;;;;4.27;63.64;100029.66;5070647;28;20369;-41
2023/01/30 01:52:23;;;;;;;;;;;;;;;4.45;63.99;100030.41;5070964;28;19924;-41
2023/01/30 01:54:53;;;;;;;;;;;;;;;4.29;63.12;100033.78;5070820;28;20004;-41
2023/01/30 01:57:25;;;;;;;;;;;;;;;4.45;63.65;100032.22;5072934;28;19920;-42
2023/01/30 01:59:55;;;;;;;;;;;;;;;4.60;62.81;100035.91;5074686;28;19923;-41
2023/01/30 02:02:21;;;;;;;;;;;;;;;4.80;62.74;100027.78;5074719;28;19916;-41
2023/01/30 02:05:01;;;;;;;;;;;;;;;4.66;62.76;100035.31;5074737;28;20019;-42
2023/01/30 02:07:28;;;;;;;;;;;;;;;4.70;63.08;100026.09;5074807;28;19920;-42
2023/01/30 02:09:54;;;;;;;;;;;;;;;4.36;64.36;100034.00;5074378;28;20399;-41
2023/01/30 02:12:19;;;;;;;;;;;;;;;4.55;62.03;100022.41;5074304;28;19913;-42
2023/01/30 02:14:45;;;;;;;;;;;;;;;4.43;62.22;100026.28;5074213;28;19912;-42
2023/01/30 02:17:10;;;;;;;;;;;;;;;4.80;62.60;100022.50;5074201;28;20011;-42
2023/01/30 02:19:45;;;;;;;;;;;;;;;4.38;62.02;100021.50;5087493;28;19960;-42
2023/01/30 02:22:29;;;;;;;;;;;;;;;4.33;63.19;100017.66;5092779;28;20289;-42
2023/01/30 02:25:03;;;;;;;;;;;;;;;4.68;60.95;100019.31;5094372;28;19912;-42
2023/01/30 02:27:47;;;;;;;;;;;;;;;4.54;61.65;100015.47;5094326;28;19920;-42
2023/01/30 02:30:18;;;;;;;;;;;;;;;4.62;63.14;100012.03;5094476;28;20002;-41
2023/01/30 02:32:52;;;;;;;;;;;;;;;4.56;61.33;100010.03;5094358;28;19994;-41
2023/01/30 02:35:20;;;;;;;;;;;;;;;4.51;61.17;100010.50;5094310;28;19916;-42
2023/01/30 02:38:00;;;;;;;;;;;;;;;4.40;61.40;100013.41;5094206;28;19947;-42
2023/01/30 02:40:44;;;;;;;;;;;;;;;4.40;62.71;100010.78;5094026;28;20011;-42
2023/01/30 02:43:28;;;;;;;;;;;;;;;4.48;63.26;100005.56;5094015;28;19933;-42
2023/01/30 02:45:59;;;;;;;;;;;;;;;4.43;62.36;100003.38;5094324;28;19912;-42
2023/01/30 02:48:24;;;;;;;;;;;;;;;4.74;61.32;100010.78;5094049;28;19912;-42
2023/01/30 02:50:56;;;;;;;;;;;;;;;4.62;61.30;100006.78;5094155;28;19935;-41
2023/01/30 02:53:21;;;;;;;;;;;;;;;4.66;60.70;100000.19;5094429;28;19948;-42
2023/01/30 02:55:47;;;;;;;;;;;;;;;4.32;62.10;100008.91;5094185;28;20357;-42
2023/01/30 02:58:13;;;;;;;;;;;;;;;4.14;62.25;100008.16;5093906;28;19912;-42
2023/01/30 03:00:51;;;;;;;;;;;;;;;4.22;62.79;100008.22;5093833;28;19916;-41
2023/01/30 03:03:39;;;;;;;;;;;;;;;4.18;61.79;100004.25;5094140;28;19916;-41
2023/01/30 03:06:13;;;;;;;;;;;;;;;4.22;63.03;100008.22;5093561;28;20275;-42
2023/01/30 03:08:47;;;;;;;;;;;;;;;3.95;62.84;100003.94;5085025;28;19920;-41
2023/01/30 03:11:12;;;;;;;;;;;;;;;4.23;61.95;99996.72;5073406;28;19916;-41
2023/01/30 03:13:48;;;;;;;;;;;;;;;4.41;62.23;99994.81;5073319;28;19969;-42
2023/01/30 03:16:25;;;;;;;;;;;;;;;4.66;60.87;100001.03;5073062;28;19912;-41
2023/01/30 03:18:50;;;;;;;;;;;;;;;4.14;62.19;99990.56;5073013;28;20457;-42
2023/01/30 03:21:16;;;;;;;;;;;;;;;4.38;62.55;99991.66;5073176;28;19924;-42
2023/01/30 03:23:43;;;;;;;;;;;;;;;4.44;61.41;99991.06;5072786;28;20393;-42
2023/01/30 03:26:14;;;;;;;;;;;;;;;4.23;62.69;99984.34;5072599;28;19952;-42
2023/01/30 03:28:40;;;;;;;;;;;;;;;4.15;61.30;99980.84;5073085;28;19919;-42
2023/01/30 03:31:05;;;;;;;;;;;;;;;4.22;62.17;99977.41;5072791;28;19913;-41
2023/01/30 03:33:30;;;;;;;;;;;;;;;3.92;61.07;99976.09;5072485;28;20408;-41
2023/01/30 03:35:56;;;;;;;;;;;;;;;3.99;61.19;99978.94;5072889;28;19913;-41
2023/01/30 03:38:21;;;;;;;;;;;;;;;3.89;61.95;99979.03;5072787;28;20395;-41
2023/01/30 03:40:46;;;;;;;;;;;;;;;3.82;62.10;99983.25;5072714;28;20380;-41
2023/01/30 03:43:11;;;;;;;;;;;;;;;3.69;61.57;99983.66;5072827;28;19913;-42
2023/01/30 03:45:37;;;;;;;;;;;;;;;3.85;62.16;99981.16;5072582;28;20229;-41
2023/01/30 03:48:02;;;;;;;;;;;;;;;4.12;60.86;99981.97;5072726;28;19913;-42
2023/01/30 03:50:28;;;;;;;;;;;;;;;3.87;61.62;99979.19;5072829;28;20253;-41
2023/01/30 03:52:53;;;;;;;;;;;;;;;4.05;61.86;99984.41;5072518;28;19913;-41
2023/01/30 03:55:18;;;;;;;;;;;;;;;3.78;60.68;99987.19;5072568;28;20297;-41
2023/01/30 03:57:44;;;;;;;;;;;;;;;4.10;59.99;99981.31;5072489;28;19913;-41
2023/01/30 04:00:10;;;;;;;;;;;;;;;3.98;61.82;99985.16;5072156;28;19917;-41
2023/01/30 04:02:37;;;;;;;;;;;;;;;3.89;62.15;99982.50;5072521;28;19958;-41
2023/01/30 04:05:03;;;;;;;;;;;;;;;4.00;61.00;99984.06;5072430;28;19920;-41
2023/01/30 04:07:28;;;;;;;;;;;;;;;4.39;60.42;99977.50;5072484;28;19912;-41
2023/01/30 04:09:54;;;;;;;;;;;;;;;4.16;60.43;99974.59;5071853;28;20015;-41
2023/01/30 04:12:19;;;;;;;;;;;;;;;4.36;60.97;99980.44;5072274;28;19961;-42
2023/01/30 04:14:44;;;;;;;;;;;;;;;4.03;61.19;99970.56;5072503;28;20352;-42
2023/01/30 04:17:10;;;;;;;;;;;;;;;3.70;60.97;99974.78;5071884;28;19922;-42
2023/01/30 04:19:35;;;;;;;;;;;;;;;3.66;62.53;99969.00;5071603;28;20330;-42
2023/01/30 04:22:00;;;;;;;;;;;;;;;3.70;62.02;99969.53;5071116;28;19925;-42
2023/01/30 04:24:25;;;;;;;;;;;;;;;3.95;61.72;99969.69;5071418;28;19913;-42
2023/01/30 04:26:51;;;;;;;;;;;;;;;3.95;62.25;99972.34;5071415;28;19923;-42
2023/01/30 04:29:16;;;;;;;;;;;;;;;3.98;60.07;99974.63;5071698;28;19912;-42
2023/01/30 04:31:41;;;;;;;;;;;;;;;3.86;60.03;99974.88;5071759;28;19920;-41
2023/01/30 04:34:06;;;;;;;;;;;;;;;3.69;60.92;99973.13;5071566;28;19919;-42
2023/01/30 04:36:32;;;;;;;;;;;;;;;3.74;60.43;99967.41;5071570;28;19919;-42
2023/01/30 04:38:57;;;;;;;;;;;;;;;3.84;60.41;99976.84;5071832;28;19920;-42
2023/01/30 04:41:22;;;;;;;;;;;;;;;3.64;60.48;99968.34;5071549;28;19935;-42
2023/01/30 04:43:48;;;;;;;;;;;;;;;3.45;61.44;99979.84;5071542;28;20353;-42
2023/01/30 04:46:13;;;;;;;;;;;;;;;3.56;61.04;99972.69;5071463;28;19977;-42
2023/01/30 04:48:38;;;;;;;;;;;;;;;3.61;60.63;99980.97;5071416;28;19924;-42
2023/01/30 04:51:04;;;;;;;;;;;;;;;3.36;61.31;99975.50;5071406;28;20390;-42
2023/01/30 04:53:29;;;;;;;;;;;;;;;3.60;61.09;99980.16;5082391;28;19922;-42
2023/01/30 04:55:55;;;;;;;;;;;;;;;3.91;60.18;99972.63;5091593;28;19912;-43
2023/01/30 04:58:20;;;;;;;;;;;;;;;3.30;60.94;99970.84;5091399;28;20084;-42
2023/01/30 05:00:46;;;;;;;;;;;;;;;3.29;61.31;99966.56;5091385;28;19911;-42
2023/01/30 05:03:11;;;;;;;;;;;;;;;3.21;62.97;99969.94;5091672;28;19924;-42
2023/01/30 05:05:36;;;;;;;;;;;;;;;3.20;61.93;99967.44;5091704;28;20360;-42
2023/01/30 05:08:02;;;;;;;;;;;;;;;3.29;61.84;99963.91;5091912;28;20012;-42
2023/01/30 05:10:27;;;;;;;;;;;;;;;3.65;60.79;99962.06;5091884;28;20021;-42
2023/01/30 05:12:52;;;;;;;;;;;;;;;3.83;60.22;99969.13;5091491;28;19912;-42
2023/01/30 05:15:18;;;;;;;;;;;;;;;3.34;61.02;99969.56;5091379;28;20005;-42
2023/01/30 05:17:43;;;;;;;;;;;;;;;3.54;60.59;99964.94;5091284;28;19912;-42
2023/01/30 05:20:09;;;;;;;;;;;;;;;3.60;60.32;99971.41;5091131;28;19988;-41
2023/01/30 05:22:34;;;;;;;;;;;;;;;3.36;60.27;99972.88;5091137;28;19917;-41
2023/01/30 05:24:59;;;;;;;;;;;;;;;3.34;61.09;99972.19;5090958;28;19912;-41
2023/01/30 05:27:25;;;;;;;;;;;;;;;3.25;60.91;99973.09;5090861;28;19969;-42
2023/01/30 05:29:50;;;;;;;;;;;;;;;3.15;61.64;99969.72;5091120;28;19919;-41
2023/01/30 05:32:16;;;;;;;;;;;;;;;3.43;60.10;99975.75;5092323;28;19912;-42
2023/01/30 05:34:42;;;;;;;;;;;;;;;3.43;60.62;99965.22;5106307;28;19916;-42
2023/01/30 05:37:08;;;;;;;;;;;;;;;3.62;59.81;99969.47;5099635;28;19919;-42
2023/01/30 05:39:33;;;;;;;;;;;;;;;3.32;60.29;99966.25;5099098;28;19913;-42
2023/01/30 05:41:58;;;;;;;;;;;;;;;3.48;60.38;99979.56;5090344;28;19922;-42
2023/01/30 05:44:24;;;;;;;;;;;;;;;3.83;59.43;99980.47;5103899;28;19912;-42
2023/01/30 05:46:49;;;;;;;;;;;;;;;3.61;59.43;99971.25;5090514;28;20388;-42
2023/01/30 05:49:14;;;;;;;;;;;;;;;3.19;60.71;99966.63;5090345;28;19912;-42
2023/01/30 05:51:40;;;;;;;;;;;;;;;3.64;60.33;99970.16;5090035;28;19919;-42
2023/01/30 05:54:05;;;;;;;;;;;;;;;4.24;58.37;99972.00;5090158;28;19942;-42
2023/01/30 05:56:32;;;;;;;;;;;;;;;4.45;57.44;99977.69;5089942;28;20064;-42
2023/01/30 05:58:58;;;;;;;;;;;;;;;4.39;57.30;99977.50;5090430;28;20379;-42
2023/01/30 06:01:23;;;;;;;;;;;;;;;3.76;58.86;99968.91;5093179;28;20411;-42
2023/01/30 06:03:49;;;;;;;;;;;;;;;3.71;59.27;99972.00;5107650;28;19955;-42
2023/01/30 06:06:14;;;;;;;;;;;;;;;3.74;59.27;99968.25;5098517;28;20310;-42
2023/01/30 06:08:39;;;;;;;;;;;;;;;3.76;58.87;99974.16;5082288;28;19918;-42
2023/01/30 06:11:07;;;;;;;;;;;;;;;3.49;60.36;99978.56;5106403;28;19946;-42
2023/01/30 06:13:32;;;;;;;;;;;;;;;3.48;59.91;99979.56;5109069;28;20527;-43
2023/01/30 06:15:58;;;;;;;;;;;;;;;3.53;59.96;99979.09;5109244;28;20028;-42
2023/01/30 06:18:23;;;;;;;;;;;;;;;3.87;59.54;99986.28;5109978;28;19912;-42
2023/01/30 06:20:50;;;;;;;;;;;;;;;3.82;58.86;99983.25;5110444;28;20000;-42
2023/01/30 06:23:15;;;;;;;;;;;;;;;3.95;58.99;99985.50;5110270;28;19908;-44
2023/01/30 06:25:45;;;;;;;;;;;;;;;3.77;59.24;99985.53;5110347;28;19918;-41
2023/01/30 06:28:10;;;;;;;;;;;;;;;4.09;58.97;99982.28;5110181;28;19912;-41
2023/01/30 06:30:35;;;;;;;;;;;;;;;3.91;58.91;99988.44;5110964;28;19912;-42
2023/01/30 06:33:01;;;;;;;;;;;;;;;4.52;57.99;99991.06;5110259;28;20332;-42
2023/01/30 06:35:26;;;;;;;;;;;;;;;4.12;57.81;99992.50;5110328;28;19918;-42
2023/01/30 06:37:51;;;;;;;;;;;;;;;4.21;58.56;99996.03;5110176;28;20355;-42
2023/01/30 06:40:17;;;;;;;;;;;;;;;4.12;58.33;99995.16;5109726;28;19915;-42
2023/01/30 06:42:43;;;;;;;;;;;;;;;3.90;58.31;99989.44;5110459;28;19919;-42
2023/01/30 06:45:09;;;;;;;;;;;;;;;3.81;58.58;99994.75;5089712;28;19923;-41
2023/01/30 06:47:42;;;;;;;;;;;;;;;3.97;58.27;99988.81;5073656;28;19912;-41
2023/01/30 06:50:08;;;;;;;;;;;;;;;4.45;57.13;99995.31;5081173;28;19912;-42
2023/01/30 06:52:33;;;;;;;;;;;;;;;4.38;57.12;99992.50;5082430;28;19924;-42
2023/01/30 06:54:58;;;;;;;;;;;;;;;3.96;57.67;99987.97;5085586;28;20279;-42
2023/01/30 06:57:23;;;;;;;;;;;;;;;3.58;59.13;99997.06;5082949;28;20059;-42
2023/01/30 06:59:49;;;;;;;;;;;;;;;3.20;61.08;99993.75;5082310;28;20381;-42
2023/01/30 07:02:14;;;;;;;;;;;;;;;3.95;59.32;99988.13;5084788;28;19970;-41
2023/01/30 07:04:40;;;;;;;;;;;;;;;4.78;56.40;99995.44;5090365;28;19912;-41
2023/01/30 07:07:05;;;;;;;;;;;;;;;4.47;57.06;99993.34;5081958;28;19924;-42
2023/01/30 07:09:31;;;;;;;;;;;;;;;4.23;57.30;99999.34;5083352;28;19965;-40
2023/01/30 07:11:56;;;;;;;;;;;;;;;3.72;58.84;100007.88;5089299;28;19912;-41
2023/01/30 07:14:21;;;;;;;;;;;;;;;3.81;58.62;99997.41;5093492;28;20437;-41
2023/01/30 07:16:46;;;;;;;;;;;;;;;4.44;58.10;100001.59;5093342;28;20165;-36
2023/01/30 07:19:12;;;;;;;;;;;;;;;4.71;56.13;100003.19;5092612;28;20342;-36
2023/01/30 07:21:37;;;;;;;;;;;;;;;4.52;56.24;99998.16;5093000;28;19998;-36
2023/01/30 07:24:02;;;;;;;;;;;;;;;3.80;58.77;99995.75;5092559;28;19912;-36
2023/01/30 07:26:30;;;;;;;;;;;;;;;3.25;60.96;100002.03;5092916;28;19958;-36
2023/01/30 07:28:55;;;;;;;;;;;;;;;3.65;59.44;100004.19;5092826;28;19920;-36
2023/01/30 07:31:20;;;;;;;;;;;;;;;3.67;59.71;100004.03;5092742;28;19913;-35
2023/01/30 07:33:45;;;;;;;;;;;;;;;4.30;58.34;100000.34;5092674;28;19934;-36
2023/01/30 07:36:11;;;;;;;;;;;;;;;4.31;57.79;99997.56;5092515;28;19919;-36
2023/01/30 07:38:36;;;;;;;;;;;;;;;4.78;58.94;100006.84;5092779;28;20324;-36
2023/01/30 07:41:01;;;;;;;;;;;;;;;4.67;56.94;100007.13;5092304;28;19924;-36
2023/01/30 07:43:26;;;;;;;;;;;;;;;4.48;57.46;99992.38;5092207;28;19916;-36
2023/01/30 07:45:52;;;;;;;;;;;;;;;4.23;58.02;99999.34;5091919;28;20285;-37
2023/01/30 07:48:18;;;;;;;;;;;;;;;4.22;58.62;100001.13;5092280;28;20065;-37
2023/01/30 07:50:43;;;;;;;;;;;;;;;5.01;56.88;99998.34;5092123;28;19916;-37
2023/01/30 07:53:10;;;;;;;;;;;;;;;4.78;56.54;99996.28;5092243;28;19912;-37
2023/01/30 07:55:35;;;;;;;;;;;;;;;4.17;58.55;99999.94;5091401;28;20414;-37
2023/01/30 07:58:01;;;;;;;;;;;;;;;4.30;57.73;99987.16;5091625;28;20008;-36
2023/01/30 08:00:26;;;;;;;;;;;;;;;4.18;57.96;99989.25;5091884;28;20354;-37
2023/01/30 08:02:51;;;;;;;;;;;;;;;4.28;58.21;99984.72;5092205;28;20010;-36
2023/01/30 08:05:17;;;;;;;;;;;;;;;4.39;57.79;99980.97;5090229;28;19912;-36
2023/01/30 08:07:42;;;;;;;;;;;;;;;4.41;57.70;99986.09;5090202;28;19924;-35
2023/01/30 08:10:08;;;;;;;;;;;;;;;4.54;57.38;99993.56;5090154;28;19947;-35
2023/01/30 08:12:33;;;;;;;;;;;;;;;4.50;57.64;99990.41;5090680;28;19912;-36
2023/01/30 08:14:59;;;;;;;;;;;;;;;4.28;58.22;99989.13;5090687;28;20394;-35
2023/01/30 08:17:24;;;;;;;;;;;;;;;3.96;58.47;99990.63;5090621;28;19991;-36
2023/01/30 08:19:49;;;;;;;;;;;;;;;3.75;58.84;99984.84;5090036;28;19927;-35
2023/01/30 08:22:15;;;;;;;;;;;;;;;4.51;57.10;99981.50;5090875;28;19924;-36
2023/01/30 08:24:40;;;;;;;;;;;;;;;4.38;57.68;99979.31;5089902;28;19912;-36
2023/01/30 08:27:06;;;;;;;;;;;;;;;3.77;59.34;99982.88;5091226;28;19919;-37
2023/01/30 08:29:31;;;;;;;;;;;;;;;3.89;58.46;99984.31;5091487;28;19912;-42
2023/01/30 08:31:57;;;;;;;;;;;;;;;4.33;57.59;99986.88;5091587;28;19923;-43
2023/01/30 08:34:22;;;;;;;;;;;;;;;4.18;58.15;99978.72;5091533;28;20006;-43
2023/01/30 08:36:48;;;;;;;;;;;;;;;3.86;58.29;99977.53;5091258;28;19943;-43
2023/01/30 08:39:13;;;;;;;;;;;;;;;3.87;58.83;99971.28;5091714;28;20197;-43
2023/01/30 08:41:41;;;;;;;;;;;;;;;4.40;57.50;99971.25;5090859;28;19920;-41
2023/01/30 08:44:07;;;;;;;;;;;;;;;3.97;58.79;99975.63;5088212;28;19923;-41
2023/01/30 08:46:32;;;;;;;;;;;;;;;4.31;58.21;99970.41;5071367;28;19916;-41
2023/01/30 08:48:57;;;;;;;;;;;;;;;4.90;58.32;99981.00;5071223;28;20173;-42
2023/01/30 08:51:23;;;;;;;;;;;;;;;5.29;57.09;99980.41;5070573;28;20382;-43
2023/01/30 08:53:48;;;;;;;;;;;;;;;4.93;56.87;99977.19;5071144;28;19913;-42
2023/01/30 08:56:13;;;;;;;;;;;;;;;4.50;57.10;99966.69;5071044;28;20323;-42
2023/01/30 08:58:39;;;;;;;;;;;;;;;4.59;56.96;99973.66;5071412;28;19915;-43
2023/01/30 09:01:05;;;;;;;;;;;;;;;4.42;57.38;99967.47;5070727;28;19919;-42
2023/01/30 09:03:30;;;;;;;;;;;;;;;4.46;57.55;99965.38;5070631;28;20003;-43
2023/01/30 09:05:56;;;;;;;;;;;;;;;4.33;57.51;99962.34;5069233;28;20357;-42
2023/01/30 09:08:21;;;;;;;;;;;;;;;4.55;57.34;99963.56;5070413;28;20256;-42
2023/01/30 09:10:47;;;;;;;;;;;;;;;4.84;56.47;99964.00;5070926;28;19912;-42
2023/01/30 09:13:12;;;;;;;;;;;;;;;4.87;56.77;99957.56;5070439;28;19923;-42
2023/01/30 09:15:40;;;;;;;;;;;;;;;5.03;56.18;99954.97;5070751;28;20443;-41
2023/01/30 09:18:05;;;;;;;;;;;;;;;4.90;56.38;99949.34;5070473;28;19920;-41
2023/01/30 09:20:31;;;;;;;;;;;;;;;4.97;56.18;99946.88;5070322;28;20346;-42
2023/01/30 09:22:56;;;;;;;;;;;;;;;4.95;56.26;99944.44;5070347;28;19923;-41
2023/01/30 09:25:21;;;;;;;;;;;;;;;4.66;56.12;99947.47;5070908;28;20015;-43
2023/01/30 09:27:47;;;;;;;;;;;;;;;4.69;56.80;99942.69;5070323;28;19919;-42
2023/01/30 09:30:13;;;;;;;;;;;;;;;4.35;57.44;99932.19;5070704;28;19958;-42
2023/01/30 09:32:38;;;;;;;;;;;;;;;4.61;56.48;99928.69;5070167;28;19913;-41
2023/01/30 09:35:03;;;;;;;;;;;;;;;4.49;57.73;99928.13;5070333;28;20011;-42
2023/01/30 09:37:29;;;;;;;;;;;;;;;4.39;57.54;99928.25;5069269;28;19943;-41
2023/01/30 09:39:54;;;;;;;;;;;;;;;4.28;57.49;99916.22;5070536;28;19924;-42
2023/01/30 09:42:38;;;;;;;;;;;;;;;4.60;56.72;99919.13;5070495;28;20292;-41
2023/01/30 09:45:23;;;;;;;;;;;;;;;4.93;55.89;99906.84;5081367;28;19916;-42
2023/01/30 09:48:00;;;;;;;;;;;;;;;4.57;56.97;99906.25;5090734;28;19962;-41
2023/01/30 09:50:25;;;;;;;;;;;;;;;4.86;56.72;99897.94;5090372;28;20015;-41
2023/01/30 09:53:03;;;;;;;;;;;;;;;5.15;56.39;99901.91;5090476;28;20002;-41
2023/01/30 09:55:32;;;;;;;;;;;;;;;4.67;57.27;99893.78;5090777;28;19920;-43
2023/01/30 09:57:59;;;;;;;;;;;;;;;4.78;57.14;99896.09;5090773;28;19912;-42
2023/01/30 10:00:35;;;;;;;;;;;;;;;4.26;58.70;99888.34;5090796;28;20002;-42
2023/01/30 10:03:09;;;;;;;;;;;;;;;4.13;58.63;99890.59;5090401;28;20313;-42
2023/01/30 10:05:56;;;;;;;;;;;;;;;4.61;57.09;99874.16;5090294;28;19913;-42
2023/01/30 10:08:36;;;;;;;;;;;;;;;4.72;58.14;99866.91;5090044;28;19912;-41
2023/01/30 10:11:04;;;;;;;;;;;;;;;5.02;56.03;99855.72;5091015;28;19912;-41
2023/01/30 10:13:38;;;;;;;;;;;;;;;4.81;56.27;99852.75;5090717;28;19912;-42
2023/01/30 10:16:04;;;;;;;;;;;;;;;4.58;56.96;99845.47;5091146;28;19912;-42
2023/01/30 10:18:38;;;;;;;;;;;;;;;4.18;57.55;99847.00;5084390;28;19916;-41
2023/01/30 10:21:15;;;;;;;;;;;;;;;4.81;56.44;99844.84;5084946;28;20011;-42
2023/01/30 10:24:03;;;;;;;;;;;;;;;4.55;57.14;99837.91;5086776;28;19932;-42
2023/01/30 10:26:30;;;;;;;;;;;;;;;4.61;56.63;99829.34;5085322;28;20356;-43
2023/01/30 10:29:01;;;;;;;;;;;;;;;4.84;55.49;99826.88;5085131;28;20287;-42
2023/01/30 10:31:29;;;;;;;;;;;;;;;4.79;56.12;99817.81;5085257;28;20431;-40
2023/01/30 10:34:02;;;;;;;;;;;;;;;4.75;56.19;99811.22;5082424;28;19912;-41
2023/01/30 10:36:33;;;;;;;;;;;;;;;5.05;55.85;99812.38;5085627;28;19931;-41
2023/01/30 10:39:00;;;;;;;;;;;;;;;4.62;56.11;99794.06;5087046;28;19913;-41
2023/01/30 10:41:31;;;;;;;;;;;;;;;4.94;55.17;99787.16;5093253;28;19995;-42
2023/01/30 10:44:17;;;;;;;;;;;;;;;4.65;55.77;99788.47;5093266;28;19912;-42
2023/01/30 10:46:46;;;;;;;;;;;;;;;4.77;55.96;99778.41;5076748;28;20372;-41
2023/01/30 10:49:16;;;;;;;;;;;;;;;4.56;56.29;99776.28;5084433;28;20011;-42
2023/01/30 10:52:00;;;;;;;;;;;;;;;4.36;57.39;99769.66;5082932;28;19912;-42
2023/01/30 10:54:34;;;;;;;;;;;;;;;4.63;56.63;99761.47;5086137;28;20285;-42
2023/01/30 10:57:06;;;;;;;;;;;;;;;4.86;55.57;99755.53;5082935;28;19918;-41
2023/01/30 10:59:42;;;;;;;;;;;;;;;4.65;55.23;99748.94;5083331;28;20351;-43
2023/01/30 11:02:20;;;;;;;;;;;;;;;4.66;56.30;99742.69;5083199;28;19995;-41
2023/01/30 11:04:50;;;;;;;;;;;;;;;4.85;55.47;99738.03;5087858;28;19917;-43
2023/01/30 11:07:15;;;;;;;;;;;;;;;5.05;55.57;99738.53;5085150;28;19912;-41
2023/01/30 11:09:42;;;;;;;;;;;;;;;5.17;55.14;99728.44;5082940;28;19942;-41
2023/01/30 11:12:07;;;;;;;;;;;;;;;5.38;53.78;99720.78;5084960;28;20582;-42
2023/01/30 11:15:08;;;;;;;;;;;;;;;5.37;53.81;99715.66;5082456;28;20003;-42
2023/01/30 11:17:33;;;;;;;;;;;;;;;5.49;53.67;99714.31;5061972;28;19912;-42
2023/01/30 11:20:19;;;;;;;;;;;;;;;4.94;54.77;99713.31;5076607;28;20316;-41
2023/01/30 11:22:59;;;;;;;;;;;;;;;5.01;54.83;99709.03;5084469;28;19993;-41
2023/01/30 11:25:24;;;;;;;;;;;;;;;5.13;54.38;99698.13;5082793;28;20377;-43
2023/01/30 11:28:00;;;;;;;;;;;;;;;5.52;54.43;99698.16;5083017;28;19919;-42
2023/01/30 11:30:27;;;;;;;;;;;;;;;5.62;53.47;99696.09;5082427;28;19912;-42
2023/01/30 11:33:03;;;;;;;;;;;;;;;5.14;54.48;99692.66;5085106;28;19920;-42
2023/01/30 11:35:29;;;;;;;;;;;;;;;5.31;53.91;99685.50;5083614;28;19926;-43
2023/01/30 11:38:09;;;;;;;;;;;;;;;5.53;53.70;99677.84;5083482;28;20026;-43
2023/01/30 11:40:37;;;;;;;;;;;;;;;5.75;53.49;99666.50;5078470;28;19951;-42
2023/01/30 11:43:04;;;;;;;;;;;;;;;5.62;53.54;99660.97;5078865;28;20368;-43
2023/01/30 11:45:33;;;;;;;;;;;;;;;5.52;53.61;99655.91;5083780;28;19951;-43
2023/01/30 11:48:02;;;;;;;;;;;;;;;5.66;52.66;99651.72;5089721;28;19942;-43
2023/01/30 11:50:38;;;;;;;;;;;;;;;5.64;53.31;99648.41;5092656;28;20380;-42
2023/01/30 11:53:12;;;;;;;;;;;;;;;5.31;53.82;99650.38;5092241;28;20007;-43
2023/01/30 11:55:38;;;;;;;;;;;;;;;5.42;53.57;99645.53;5092449;28;20124;-42
2023/01/30 11:58:06;;;;;;;;;;;;;;;5.29;54.10;99650.53;5092268;28;20121;-42
2023/01/30 12:00:40;;;;;;;;;;;;;;;5.41;53.76;99643.91;5091961;28;20006;-41
2023/01/30 12:03:09;;;;;;;;;;;;;;;5.09;54.24;99636.94;5092354;28;19946;-42
2023/01/30 12:05:41;;;;;;;;;;;;;;;5.61;53.78;99631.09;5092581;28;19916;-42
2023/01/30 12:08:19;;;;;;;;;;;;;;;5.75;52.97;99618.13;5092003;28;19913;-42
2023/01/30 12:10:45;;;;;;;;;;;;;;;5.83;51.51;99616.28;5092098;28;19912;-41
2023/01/30 12:13:16;;;;;;;;;;;;;;;5.82;50.48;99605.88;5091789;28;19956;-41
2023/01/30 12:15:44;;;;;;;;;;;;;;;5.43;48.26;99607.59;5091985;28;19920;-42
2023/01/30 12:18:16;;;;;;;;;;;;;;;5.49;47.59;99599.00;5090421;28;19919;-42
2023/01/30 12:20:57;;;;;;;;;;;;;;;5.94;46.70;99595.72;5091134;28;20405;-42
2023/01/30 12:23:28;;;;;;;;;;;;;;;5.39;48.03;99592.31;5091364;28;20272;-41
2023/01/30 12:25:53;;;;;;;;;;;;;;;5.50;48.01;99594.53;5091624;28;19920;-41
2023/01/30 12:28:24;;;;;;;;;;;;;;;5.30;48.73;99594.16;5092031;28;20363;-41
2023/01/30 12:30:55;;;;;;;;;;;;;;;5.86;47.06;99589.53;5092085;28;19919;-42
2023/01/30 12:33:21;;;;;;;;;;;;;;;5.73;46.50;99589.28;5091968;28;19912;-42
2023/01/30 12:35:52;;;;;;;;;;;;;;;6.01;45.88;99586.94;5091494;28;20411;-42
2023/01/30 12:38:28;;;;;;;;;;;;;;;5.63;47.38;99578.13;5091791;28;20450;-42
2023/01/30 12:40:56;;;;;;;;;;;;;;;5.51;47.13;99590.09;5070758;28;20316;-42
2023/01/30 12:43:44;;;;;;;;;;;;;;;5.46;47.59;99588.78;5071344;28;19913;-42
2023/01/30 12:46:21;;;;;;;;;;;;;;;5.41;46.84;99580.56;5076329;28;20410;-42
2023/01/30 12:49:19;;;;;;;;;;;;;;;5.20;48.41;99577.72;5081893;28;19969;-42
2023/01/30 12:52:07;;;;;;;;;;;;;;;5.26;47.46;99572.56;5072804;28;20346;-43
2023/01/30 12:54:46;;;;;;;;;;;;;;;5.54;47.26;99568.59;5075961;28;19959;-41
2023/01/30 12:57:21;;;;;;;;;;;;;;;5.67;46.60;99561.78;5079779;28;20364;-42
2023/01/30 12:59:49;;;;;;;;;;;;;;;5.52;47.60;99557.41;5082333;28;19998;-42
2023/01/30 13:02:15;;;;;;;;;;;;;;;5.55;47.22;99555.22;5079454;28;20007;-41
2023/01/30 13:04:49;;;;;;;;;;;;;;;5.91;46.46;99549.34;5081275;28;20003;-42
2023/01/30 13:07:15;;;;;;;;;;;;;;;5.35;47.40;99541.69;5077351;28;19995;-41
2023/01/30 13:09:47;;;;;;;;;;;;;;;4.81;48.00;99542.44;5083094;28;20007;-42